sensor_id;sensor_type;location;lat;lon;timestamp;temperature;humidity
55008;DHT22;40902;45.116;21.296;2023-03-21T00:00:42;333.10;2329.60
55008;DHT22;40902;45.116;21.296;2023-03-21T00:03:08;333.00;2329.60
55008;DHT22;40902;45.116;21.296;2023-03-21T00:05:38;333.00;2329.60
55008;DHT22;40902;45.116;21.296;2023-03-21T00:08:03;332.90;2329.60
55008;DHT22;40902;45.116;21.296;2023-03-21T00:10:29;332.90;2329.60
55008;DHT22;40902;45.116;21.296;2023-03-21T00:12:55;332.90;2329.60
55008;DHT22;40902;45.116;21.296;2023-03-21T00:15:23;332.80;2329.60
55008;DHT22;40902;45.116;21.296;2023-03-21T00:17:53;308.10;2304.00
55008;DHT22;40902;45.116;21.296;2023-03-21T00:20:23;308.10;2304.00
55008;DHT22;40902;45.116;21.296;2023-03-21T00:22:48;308.10;2304.00
55008;DHT22;40902;45.116;21.296;2023-03-21T00:25:14;308.10;2304.00
55008;DHT22;40902;45.116;21.296;2023-03-21T00:27:40;308.10;2304.00
55008;DHT22;40902;45.116;21.296;2023-03-21T00:30:06;308.10;2304.00
55008;DHT22;40902;45.116;21.296;2023-03-21T00:32:32;308.10;2304.00
55008;DHT22;40902;45.116;21.296;2023-03-21T00:34:58;308.10;2304.00
55008;DHT22;40902;45.116;21.296;2023-03-21T00:37:23;308.10;2304.00
55008;DHT22;40902;45.116;21.296;2023-03-21T00:39:49;308.10;2304.00
55008;DHT22;40902;45.116;21.296;2023-03-21T00:42:15;308.10;2304.00
55008;DHT22;40902;45.116;21.296;2023-03-21T00:44:41;308.00;2304.00
55008;DHT22;40902;45.116;21.296;2023-03-21T00:47:07;308.00;2304.00
55008;DHT22;40902;45.116;21.296;2023-03-21T00:49:33;308.00;2304.00
55008;DHT22;40902;45.116;21.296;2023-03-21T00:51:59;307.90;2304.00
55008;DHT22;40902;45.116;21.296;2023-03-21T00:54:25;307.90;2304.00
55008;DHT22;40902;45.116;21.296;2023-03-21T00:56:51;307.80;2304.00
55008;DHT22;40902;45.116;21.296;2023-03-21T00:59:17;307.80;2304.00
55008;DHT22;40902;45.116;21.296;2023-03-21T01:01:43;307.80;2304.00
55008;DHT22;40902;45.116;21.296;2023-03-21T01:04:12;307.80;2304.00
55008;DHT22;40902;45.116;21.296;2023-03-21T01:06:40;307.70;2304.00
55008;DHT22;40902;45.116;21.296;2023-03-21T01:09:19;307.80;2304.00
55008;DHT22;40902;45.116;21.296;2023-03-21T01:11:45;307.80;2304.00
55008;DHT22;40902;45.116;21.296;2023-03-21T01:14:13;307.80;2304.00
55008;DHT22;40902;45.116;21.296;2023-03-21T01:16:39;307.80;2304.00
55008;DHT22;40902;45.116;21.296;2023-03-21T01:19:06;307.90;2304.00
55008;DHT22;40902;45.116;21.296;2023-03-21T01:21:33;307.90;2304.00
55008;DHT22;40902;45.116;21.296;2023-03-21T01:23:59;307.90;2304.00
55008;DHT22;40902;45.116;21.296;2023-03-21T01:26:26;307.90;2304.00
55008;DHT22;40902;45.116;21.296;2023-03-21T01:28:52;307.90;2304.00
55008;DHT22;40902;45.116;21.296;2023-03-21T01:31:18;307.90;2304.00
55008;DHT22;40902;45.116;21.296;2023-03-21T01:33:44;307.90;2304.00
55008;DHT22;40902;45.116;21.296;2023-03-21T01:36:21;307.90;2304.00
55008;DHT22;40902;45.116;21.296;2023-03-21T01:38:48;307.90;2304.00
55008;DHT22;40902;45.116;21.296;2023-03-21T01:41:38;307.90;2304.00
55008;DHT22;40902;45.116;21.296;2023-03-21T01:44:05;307.90;2304.00
55008;DHT22;40902;45.116;21.296;2023-03-21T01:46:37;307.90;2304.00
55008;DHT22;40902;45.116;21.296;2023-03-21T01:51:40;307.90;2304.00
55008;DHT22;40902;45.116;21.296;2023-03-21T01:54:08;307.90;2304.00
55008;DHT22;40902;45.116;21.296;2023-03-21T01:56:38;307.90;2304.00
55008;DHT22;40902;45.116;21.296;2023-03-21T01:59:18;307.90;2304.00
55008;DHT22;40902;45.116;21.296;2023-03-21T02:01:47;307.90;2304.00
55008;DHT22;40902;45.116;21.296;2023-03-21T02:04:14;307.80;2304.00
55008;DHT22;40902;45.116;21.296;2023-03-21T02:07:11;307.90;2304.00
55008;DHT22;40902;45.116;21.296;2023-03-21T02:09:41;307.80;2304.00
55008;DHT22;40902;45.116;21.296;2023-03-21T02:12:09;307.90;2304.00
55008;DHT22;40902;45.116;21.296;2023-03-21T02:14:36;307.90;2304.00
55008;DHT22;40902;45.116;21.296;2023-03-21T02:27:58;307.80;2304.00
55008;DHT22;40902;45.116;21.296;2023-03-21T02:33:35;307.80;2304.00
55008;DHT22;40902;45.116;21.296;2023-03-21T02:36:27;307.80;2304.00
55008;DHT22;40902;45.116;21.296;2023-03-21T02:39:15;307.80;2304.00
55008;DHT22;40902;45.116;21.296;2023-03-21T02:41:56;307.80;2304.00
55008;DHT22;40902;45.116;21.296;2023-03-21T02:47:56;307.80;2304.00
55008;DHT22;40902;45.116;21.296;2023-03-21T02:50:23;307.80;2304.00
55008;DHT22;40902;45.116;21.296;2023-03-21T02:52:53;307.80;2304.00
55008;DHT22;40902;45.116;21.296;2023-03-21T02:55:25;307.90;2304.00
55008;DHT22;40902;45.116;21.296;2023-03-21T02:57:54;307.90;2304.00
55008;DHT22;40902;45.116;21.296;2023-03-21T03:00:25;308.00;2304.00
55008;DHT22;40902;45.116;21.296;2023-03-21T03:02:52;308.00;2304.00
55008;DHT22;40902;45.116;21.296;2023-03-21T03:05:24;307.90;2304.00
55008;DHT22;40902;45.116;21.296;2023-03-21T03:19:03;308.10;2304.00
55008;DHT22;40902;45.116;21.296;2023-03-21T03:24:00;332.90;2329.60
55008;DHT22;40902;45.116;21.296;2023-03-21T03:29:05;332.80;2329.60
55008;DHT22;40902;45.116;21.296;2023-03-21T03:31:57;332.80;2329.60
55008;DHT22;40902;45.116;21.296;2023-03-21T03:34:24;308.10;2304.00
55008;DHT22;40902;45.116;21.296;2023-03-21T03:36:56;332.80;2329.60
55008;DHT22;40902;45.116;21.296;2023-03-21T03:39:28;332.80;2329.60
55008;DHT22;40902;45.116;21.296;2023-03-21T03:42:01;333.00;2329.60
55008;DHT22;40902;45.116;21.296;2023-03-21T03:44:29;332.90;2329.60
55008;DHT22;40902;45.116;21.296;2023-03-21T03:47:00;332.90;2329.60
55008;DHT22;40902;45.116;21.296;2023-03-21T03:49:32;332.80;2329.60
55008;DHT22;40902;45.116;21.296;2023-03-21T03:52:08;332.80;2329.60
55008;DHT22;40902;45.116;21.296;2023-03-21T03:54:44;332.80;2329.60
55008;DHT22;40902;45.116;21.296;2023-03-21T03:57:11;332.80;2329.60
55008;DHT22;40902;45.116;21.296;2023-03-21T03:59:40;308.10;2304.00
55008;DHT22;40902;45.116;21.296;2023-03-21T04:02:07;308.10;2304.00
55008;DHT22;40902;45.116;21.296;2023-03-21T04:04:33;308.10;2304.00
55008;DHT22;40902;45.116;21.296;2023-03-21T04:06:59;308.10;2304.00
55008;DHT22;40902;45.116;21.296;2023-03-21T04:09:27;308.10;2304.00
55008;DHT22;40902;45.116;21.296;2023-03-21T04:11:53;308.10;2304.00
55008;DHT22;40902;45.116;21.296;2023-03-21T04:14:19;308.00;2304.00
55008;DHT22;40902;45.116;21.296;2023-03-21T04:16:45;308.00;2304.00
55008;DHT22;40902;45.116;21.296;2023-03-21T04:19:11;308.00;2304.00
55008;DHT22;40902;45.116;21.296;2023-03-21T04:21:37;308.10;2304.00
55008;DHT22;40902;45.116;21.296;2023-03-21T04:24:03;308.00;2304.00
55008;DHT22;40902;45.116;21.296;2023-03-21T04:26:29;308.00;2304.00
55008;DHT22;40902;45.116;21.296;2023-03-21T04:28:58;308.00;2304.00
55008;DHT22;40902;45.116;21.296;2023-03-21T04:31:28;307.90;2304.00
55008;DHT22;40902;45.116;21.296;2023-03-21T04:33:56;307.90;2304.00
55008;DHT22;40902;45.116;21.296;2023-03-21T04:36:22;307.80;2304.00
55008;DHT22;40902;45.116;21.296;2023-03-21T04:38:56;307.80;2304.00
55008;DHT22;40902;45.116;21.296;2023-03-21T04:41:29;307.70;2304.00
55008;DHT22;40902;45.116;21.296;2023-03-21T04:43:55;307.60;2304.00
55008;DHT22;40902;45.116;21.296;2023-03-21T04:46:21;307.60;2304.00
55008;DHT22;40902;45.116;21.296;2023-03-21T04:48:47;307.70;2304.00
55008;DHT22;40902;45.116;21.296;2023-03-21T04:51:14;307.50;2304.00
55008;DHT22;40902;45.116;21.296;2023-03-21T04:53:40;307.40;2304.00
55008;DHT22;40902;45.116;21.296;2023-03-21T04:56:10;307.40;2304.00
55008;DHT22;40902;45.116;21.296;2023-03-21T04:58:36;307.30;2304.00
55008;DHT22;40902;45.116;21.296;2023-03-21T05:01:02;307.30;2304.00
55008;DHT22;40902;45.116;21.296;2023-03-21T05:03:30;307.40;2304.00
55008;DHT22;40902;45.116;21.296;2023-03-21T05:05:59;307.30;2304.00
55008;DHT22;40902;45.116;21.296;2023-03-21T05:08:25;307.30;2304.00
55008;DHT22;40902;45.116;21.296;2023-03-21T05:10:51;307.30;2304.00
55008;DHT22;40902;45.116;21.296;2023-03-21T05:13:17;307.30;2304.00
55008;DHT22;40902;45.116;21.296;2023-03-21T05:15:42;307.20;2304.00
55008;DHT22;40902;45.116;21.296;2023-03-21T05:18:08;307.30;2304.00
55008;DHT22;40902;45.116;21.296;2023-03-21T05:20:38;307.30;2304.00
55008;DHT22;40902;45.116;21.296;2023-03-21T05:23:10;307.40;2304.00
55008;DHT22;40902;45.116;21.296;2023-03-21T05:25:37;307.40;2304.00
55008;DHT22;40902;45.116;21.296;2023-03-21T05:28:04;307.40;2304.00
55008;DHT22;40902;45.116;21.296;2023-03-21T05:30:30;307.50;2304.00
55008;DHT22;40902;45.116;21.296;2023-03-21T05:32:56;307.50;2304.00
55008;DHT22;40902;45.116;21.296;2023-03-21T05:35:22;307.60;2304.00
55008;DHT22;40902;45.116;21.296;2023-03-21T05:37:48;308.00;2304.00
55008;DHT22;40902;45.116;21.296;2023-03-21T05:40:13;307.80;2304.00
55008;DHT22;40902;45.116;21.296;2023-03-21T05:42:39;308.00;2304.00
55008;DHT22;40902;45.116;21.296;2023-03-21T05:45:05;307.90;2304.00
55008;DHT22;40902;45.116;21.296;2023-03-21T05:47:31;308.00;2304.00
55008;DHT22;40902;45.116;21.296;2023-03-21T05:49:57;308.10;2304.00
55008;DHT22;40902;45.116;21.296;2023-03-21T05:52:23;308.10;2304.00
55008;DHT22;40902;45.116;21.296;2023-03-21T05:54:49;332.80;2329.60
55008;DHT22;40902;45.116;21.296;2023-03-21T05:57:15;332.80;2329.60
55008;DHT22;40902;45.116;21.296;2023-03-21T05:59:43;332.90;2329.60
55008;DHT22;40902;45.116;21.296;2023-03-21T06:02:09;333.20;2329.60
55008;DHT22;40902;45.116;21.296;2023-03-21T06:04:35;333.10;2329.60
55008;DHT22;40902;45.116;21.296;2023-03-21T06:07:01;333.00;2329.60
55008;DHT22;40902;45.116;21.296;2023-03-21T06:09:26;333.20;2329.60
55008;DHT22;40902;45.116;21.296;2023-03-21T06:11:54;333.10;2329.60
55008;DHT22;40902;45.116;21.296;2023-03-21T06:14:21;333.20;2329.60
55008;DHT22;40902;45.116;21.296;2023-03-21T06:16:47;333.50;2329.60
55008;DHT22;40902;45.116;21.296;2023-03-21T06:19:13;333.40;2329.60
55008;DHT22;40902;45.116;21.296;2023-03-21T06:21:39;333.50;2329.60
55008;DHT22;40902;45.116;21.296;2023-03-21T06:24:05;333.70;2329.60
55008;DHT22;40902;45.116;21.296;2023-03-21T06:26:31;333.60;2329.60
55008;DHT22;40902;45.116;21.296;2023-03-21T06:28:56;333.60;2329.60
55008;DHT22;40902;45.116;21.296;2023-03-21T06:31:22;333.70;2329.60
55008;DHT22;40902;45.116;21.296;2023-03-21T06:33:49;333.60;2329.60
55008;DHT22;40902;45.116;21.296;2023-03-21T06:36:16;333.50;2329.60
55008;DHT22;40902;45.116;21.296;2023-03-21T06:38:42;333.60;2329.60
55008;DHT22;40902;45.116;21.296;2023-03-21T06:41:08;333.60;2329.60
55008;DHT22;40902;45.116;21.296;2023-03-21T06:43:34;333.70;2329.60
55008;DHT22;40902;45.116;21.296;2023-03-21T06:46:00;333.70;2329.60
55008;DHT22;40902;45.116;21.296;2023-03-21T06:48:26;358.40;2329.60
55008;DHT22;40902;45.116;21.296;2023-03-21T06:50:53;358.60;2329.60
55008;DHT22;40902;45.116;21.296;2023-03-21T06:53:20;358.90;2329.60
55008;DHT22;40902;45.116;21.296;2023-03-21T06:55:55;358.60;2329.60
55008;DHT22;40902;45.116;21.296;2023-03-21T06:58:23;358.60;2329.60
55008;DHT22;40902;45.116;21.296;2023-03-21T07:00:49;358.60;2329.60
55008;DHT22;40902;45.116;21.296;2023-03-21T07:03:15;358.60;2329.60
55008;DHT22;40902;45.116;21.296;2023-03-21T07:05:41;358.60;2329.60
55008;DHT22;40902;45.116;21.296;2023-03-21T07:08:08;358.60;2329.60
55008;DHT22;40902;45.116;21.296;2023-03-21T07:10:39;358.50;2329.60
55008;DHT22;40902;45.116;21.296;2023-03-21T07:13:05;358.50;2329.60
55008;DHT22;40902;45.116;21.296;2023-03-21T07:15:31;358.50;2329.60
55008;DHT22;40902;45.116;21.296;2023-03-21T07:17:58;358.50;2329.60
55008;DHT22;40902;45.116;21.296;2023-03-21T07:20:24;358.50;2329.60
55008;DHT22;40902;45.116;21.296;2023-03-21T07:22:51;358.60;2329.60
55008;DHT22;40902;45.116;21.296;2023-03-21T07:25:17;358.70;2329.60
55008;DHT22;40902;45.116;21.296;2023-03-21T07:27:44;358.80;2329.60
55008;DHT22;40902;45.116;21.296;2023-03-21T07:30:11;359.00;2329.60
55008;DHT22;40902;45.116;21.296;2023-03-21T07:32:37;359.20;2329.60
55008;DHT22;40902;45.116;21.296;2023-03-21T07:37:30;384.10;2329.60
55008;DHT22;40902;45.116;21.296;2023-03-21T07:39:55;359.10;2329.60
55008;DHT22;40902;45.116;21.296;2023-03-21T07:42:21;359.20;2329.60
55008;DHT22;40902;45.116;21.296;2023-03-21T07:44:47;359.20;2329.60
55008;DHT22;40902;45.116;21.296;2023-03-21T07:47:12;384.30;2329.60
55008;DHT22;40902;45.116;21.296;2023-03-21T07:49:38;359.30;2329.60
55008;DHT22;40902;45.116;21.296;2023-03-21T07:52:04;359.30;2329.60
55008;DHT22;40902;45.116;21.296;2023-03-21T07:54:32;384.10;2329.60
55008;DHT22;40902;45.116;21.296;2023-03-21T07:56:57;384.30;2329.60
55008;DHT22;40902;45.116;21.296;2023-03-21T07:59:27;384.70;2329.60
55008;DHT22;40902;45.116;21.296;2023-03-21T08:01:53;384.50;2329.60
55008;DHT22;40902;45.116;21.296;2023-03-21T08:04:19;384.50;2329.60
55008;DHT22;40902;45.116;21.296;2023-03-21T08:06:45;384.50;2329.60
55008;DHT22;40902;45.116;21.296;2023-03-21T08:09:11;384.40;2329.60
55008;DHT22;40902;45.116;21.296;2023-03-21T08:11:37;384.40;2329.60
55008;DHT22;40902;45.116;21.296;2023-03-21T08:14:02;384.50;2329.60
55008;DHT22;40902;45.116;21.296;2023-03-21T08:16:28;384.50;2329.60
55008;DHT22;40902;45.116;21.296;2023-03-21T08:18:54;384.50;2329.60
55008;DHT22;40902;45.116;21.296;2023-03-21T08:21:19;384.50;2329.60
55008;DHT22;40902;45.116;21.296;2023-03-21T08:23:45;384.60;2329.60
55008;DHT22;40902;45.116;21.296;2023-03-21T08:26:11;384.50;2329.60
55008;DHT22;40902;45.116;21.296;2023-03-21T08:28:43;384.50;2329.60
55008;DHT22;40902;45.116;21.296;2023-03-21T08:31:10;384.50;2329.60
55008;DHT22;40902;45.116;21.296;2023-03-21T08:33:36;384.50;2329.60
55008;DHT22;40902;45.116;21.296;2023-03-21T08:36:03;384.70;2329.60
55008;DHT22;40902;45.116;21.296;2023-03-21T08:38:29;384.80;2329.60
55008;DHT22;40902;45.116;21.296;2023-03-21T08:41:00;409.70;2355.20
55008;DHT22;40902;45.116;21.296;2023-03-21T08:45:53;410.20;2355.20
55008;DHT22;40902;45.116;21.296;2023-03-21T08:48:19;410.10;2355.20
55008;DHT22;40902;45.116;21.296;2023-03-21T08:53:10;410.50;2355.20
55008;DHT22;40902;45.116;21.296;2023-03-21T08:55:36;410.50;2355.20
55008;DHT22;40902;45.116;21.296;2023-03-21T08:58:02;410.50;2355.20
55008;DHT22;40902;45.116;21.296;2023-03-21T09:00:28;410.20;2355.20
55008;DHT22;40902;45.116;21.296;2023-03-21T09:02:54;410.20;2355.20
55008;DHT22;40902;45.116;21.296;2023-03-21T09:05:20;410.50;2355.20
55008;DHT22;40902;45.116;21.296;2023-03-21T09:07:47;435.20;2355.20
55008;DHT22;40902;45.116;21.296;2023-03-21T09:10:18;410.50;2355.20
55008;DHT22;40902;45.116;21.296;2023-03-21T09:12:44;410.50;2355.20
55008;DHT22;40902;45.116;21.296;2023-03-21T09:15:10;435.30;2355.20
55008;DHT22;40902;45.116;21.296;2023-03-21T09:17:37;435.40;2355.20
55008;DHT22;40902;45.116;21.296;2023-03-21T09:20:15;435.90;2355.20
55008;DHT22;40902;45.116;21.296;2023-03-21T09:22:49;436.00;2355.20
55008;DHT22;40902;45.116;21.296;2023-03-21T11:00:39;461.00;2380.80
55008;DHT22;40902;45.116;21.296;2023-03-21T11:03:06;436.10;2355.20
55008;DHT22;40902;45.116;21.296;2023-03-21T11:05:39;435.90;2355.20
55008;DHT22;40902;45.116;21.296;2023-03-21T11:08:13;436.00;2355.20
55008;DHT22;40902;45.116;21.296;2023-03-21T11:13:42;461.00;2380.80
55008;DHT22;40902;45.116;21.296;2023-03-21T11:16:11;460.90;2380.80
55008;DHT22;40902;45.116;21.296;2023-03-21T11:18:44;461.00;2380.80
55008;DHT22;40902;45.116;21.296;2023-03-21T11:21:14;461.00;2380.80
55008;DHT22;40902;45.116;21.296;2023-03-21T11:23:44;461.10;2380.80
55008;DHT22;40902;45.116;21.296;2023-03-21T11:26:21;461.20;2380.80
55008;DHT22;40902;45.116;21.296;2023-03-21T11:28:51;461.20;2380.80
55008;DHT22;40902;45.116;21.296;2023-03-21T11:31:18;461.10;2380.80
55008;DHT22;40902;45.116;21.296;2023-03-21T11:33:50;461.10;2380.80
55008;DHT22;40902;45.116;21.296;2023-03-21T11:39:11;461.10;2380.80
55008;DHT22;40902;45.116;21.296;2023-03-21T11:41:40;461.10;2380.80
55008;DHT22;40902;45.116;21.296;2023-03-21T11:44:08;461.10;2380.80
55008;DHT22;40902;45.116;21.296;2023-03-21T11:46:49;461.10;2380.80
55008;DHT22;40902;45.116;21.296;2023-03-21T11:49:14;461.30;2380.80
55008;DHT22;40902;45.116;21.296;2023-03-21T11:51:46;461.30;2380.80
55008;DHT22;40902;45.116;21.296;2023-03-21T11:57:35;461.50;2380.80
55008;DHT22;40902;45.116;21.296;2023-03-21T12:00:19;461.40;2380.80
55008;DHT22;40902;45.116;21.296;2023-03-21T12:05:55;461.50;2380.80
55008;DHT22;40902;45.116;21.296;2023-03-21T12:08:45;461.60;2380.80
55008;DHT22;40902;45.116;21.296;2023-03-21T12:22:57;486.70;2380.80
55008;DHT22;40902;45.116;21.296;2023-03-21T12:33:27;486.90;2304.00
55008;DHT22;40902;45.116;21.296;2023-03-21T12:44:25;486.60;2201.60
55008;DHT22;40902;45.116;21.296;2023-03-21T12:47:03;486.60;2227.20
55008;DHT22;40902;45.116;21.296;2023-03-21T12:49:38;486.60;2252.80
55008;DHT22;40902;45.116;21.296;2023-03-21T12:52:11;486.60;2252.80
55008;DHT22;40902;45.116;21.296;2023-03-21T12:54:49;486.60;2278.40
55008;DHT22;40902;45.116;21.296;2023-03-21T13:00:22;486.90;2278.40
55008;DHT22;40902;45.116;21.296;2023-03-21T13:03:02;486.90;2227.20
55008;DHT22;40902;45.116;21.296;2023-03-21T13:08:30;487.10;2252.80
55008;DHT22;40902;45.116;21.296;2023-03-21T13:10:59;487.10;2150.40
55008;DHT22;40902;45.116;21.296;2023-03-21T13:13:49;487.10;2124.80
55008;DHT22;40902;45.116;21.296;2023-03-21T13:19:00;487.10;2048.00
55008;DHT22;40902;45.116;21.296;2023-03-21T13:24:42;487.00;1868.80
55008;DHT22;40902;45.116;21.296;2023-03-21T13:29:53;487.00;1920.00
55008;DHT22;40902;45.116;21.296;2023-03-21T13:32:29;487.00;1894.40
55008;DHT22;40902;45.116;21.296;2023-03-21T13:35:00;487.10;1868.80
55008;DHT22;40902;45.116;21.296;2023-03-21T13:37:33;487.20;1868.80
55008;DHT22;40902;45.116;21.296;2023-03-21T13:40:02;487.20;1817.60
55008;DHT22;40902;45.116;21.296;2023-03-21T13:42:34;487.30;1817.60
55008;DHT22;40902;45.116;21.296;2023-03-21T13:45:01;487.30;1843.20
55008;DHT22;40902;45.116;21.296;2023-03-21T13:47:40;512.00;1894.40
55008;DHT22;40902;45.116;21.296;2023-03-21T13:55:45;487.10;1894.40
55008;DHT22;40902;45.116;21.296;2023-03-21T13:58:51;487.10;1920.00
55008;DHT22;40902;45.116;21.296;2023-03-21T14:04:26;487.00;1945.60
55008;DHT22;40902;45.116;21.296;2023-03-21T14:07:01;487.10;1945.60
55008;DHT22;40902;45.116;21.296;2023-03-21T14:09:37;486.90;1971.20
55008;DHT22;40902;45.116;21.296;2023-03-21T14:12:07;486.90;1971.20
55008;DHT22;40902;45.116;21.296;2023-03-21T14:14:38;486.90;1945.60
55008;DHT22;40902;45.116;21.296;2023-03-21T14:17:24;486.80;1945.60
55008;DHT22;40902;45.116;21.296;2023-03-21T14:19:59;486.80;1971.20
55008;DHT22;40902;45.116;21.296;2023-03-21T14:22:25;486.70;1971.20
55008;DHT22;40902;45.116;21.296;2023-03-21T14:24:59;486.60;1996.80
55008;DHT22;40902;45.116;21.296;2023-03-21T14:27:35;486.60;1996.80
55008;DHT22;40902;45.116;21.296;2023-03-21T14:30:04;486.70;2022.40
55008;DHT22;40902;45.116;21.296;2023-03-21T14:32:30;486.60;2022.40
55008;DHT22;40902;45.116;21.296;2023-03-21T14:34:59;486.60;2022.40
55008;DHT22;40902;45.116;21.296;2023-03-21T14:37:27;486.60;2022.40
55008;DHT22;40902;45.116;21.296;2023-03-21T14:39:58;486.60;2022.40
55008;DHT22;40902;45.116;21.296;2023-03-21T14:42:25;486.60;2022.40
55008;DHT22;40902;45.116;21.296;2023-03-21T14:44:51;486.60;2048.00
55008;DHT22;40902;45.116;21.296;2023-03-21T14:47:18;486.60;2048.00
55008;DHT22;40902;45.116;21.296;2023-03-21T14:49:44;486.70;2048.00
55008;DHT22;40902;45.116;21.296;2023-03-21T14:52:13;486.80;2048.00
55008;DHT22;40902;45.116;21.296;2023-03-21T14:54:43;486.80;2022.40
55008;DHT22;40902;45.116;21.296;2023-03-21T14:57:13;486.70;2048.00
55008;DHT22;40902;45.116;21.296;2023-03-21T14:59:40;486.70;2073.60
55008;DHT22;40902;45.116;21.296;2023-03-21T15:02:39;486.70;2048.00
55008;DHT22;40902;45.116;21.296;2023-03-21T15:07:42;486.70;2073.60
55008;DHT22;40902;45.116;21.296;2023-03-21T15:10:16;486.90;2073.60
55008;DHT22;40902;45.116;21.296;2023-03-21T15:13:00;487.00;2048.00
55008;DHT22;40902;45.116;21.296;2023-03-21T15:15:28;487.20;2048.00
55008;DHT22;40902;45.116;21.296;2023-03-21T15:17:57;487.30;2048.00
55008;DHT22;40902;45.116;21.296;2023-03-21T15:20:28;512.30;2022.40
55008;DHT22;40902;45.116;21.296;2023-03-21T15:23:42;512.00;2022.40
55008;DHT22;40902;45.116;21.296;2023-03-21T15:25:42;487.20;2022.40
55008;DHT22;40902;45.116;21.296;2023-03-21T15:28:12;487.10;2048.00
55008;DHT22;40902;45.116;21.296;2023-03-21T15:30:47;487.10;2073.60
55008;DHT22;40902;45.116;21.296;2023-03-21T15:33:14;487.00;2048.00
55008;DHT22;40902;45.116;21.296;2023-03-21T15:35:43;487.10;2048.00
55008;DHT22;40902;45.116;21.296;2023-03-21T15:53:34;537.90;1971.20
55008;DHT22;40902;45.116;21.296;2023-03-21T15:56:01;537.60;1971.20
55008;DHT22;40902;45.116;21.296;2023-03-21T15:58:34;537.80;1894.40
55008;DHT22;40902;45.116;21.296;2023-03-21T16:01:14;537.60;1920.00
55008;DHT22;40902;45.116;21.296;2023-03-21T16:25:47;512.30;1945.60
55008;DHT22;40902;45.116;21.296;2023-03-21T16:28:20;487.10;1971.20
55008;DHT22;40902;45.116;21.296;2023-03-21T16:30:46;486.90;2022.40
55008;DHT22;40902;45.116;21.296;2023-03-21T16:33:12;486.60;2048.00
55008;DHT22;40902;45.116;21.296;2023-03-21T16:35:38;486.60;2073.60
55008;DHT22;40902;45.116;21.296;2023-03-21T16:38:04;461.70;2099.20
55008;DHT22;40902;45.116;21.296;2023-03-21T16:40:33;461.70;2124.80
55008;DHT22;40902;45.116;21.296;2023-03-21T16:42:59;461.60;2150.40
55008;DHT22;40902;45.116;21.296;2023-03-21T16:47:53;461.60;2176.00
55008;DHT22;40902;45.116;21.296;2023-03-21T16:52:52;461.30;2201.60
55008;DHT22;40902;45.116;21.296;2023-03-21T16:55:19;461.20;2252.80
55008;DHT22;40902;45.116;21.296;2023-03-21T16:57:45;460.90;2252.80
55008;DHT22;40902;45.116;21.296;2023-03-21T17:00:13;436.10;2252.80
55008;DHT22;40902;45.116;21.296;2023-03-21T17:02:41;436.00;2278.40
55008;DHT22;40902;45.116;21.296;2023-03-21T17:05:07;435.90;2304.00
55008;DHT22;40902;45.116;21.296;2023-03-21T17:07:32;435.70;2329.60
55008;DHT22;40902;45.116;21.296;2023-03-21T17:09:58;435.70;2329.60
55008;DHT22;40902;45.116;21.296;2023-03-21T17:12:24;435.60;2355.20
55008;DHT22;40902;45.116;21.296;2023-03-21T17:14:49;435.60;2355.20
55008;DHT22;40902;45.116;21.296;2023-03-21T17:17:16;435.40;2355.20
55008;DHT22;40902;45.116;21.296;2023-03-21T17:19:42;435.40;2355.20
55008;DHT22;40902;45.116;21.296;2023-03-21T17:22:08;435.30;2355.20
55008;DHT22;40902;45.116;21.296;2023-03-21T17:24:34;435.30;2355.20
55008;DHT22;40902;45.116;21.296;2023-03-21T17:27:01;435.20;2355.20
55008;DHT22;40902;45.116;21.296;2023-03-21T17:29:27;410.50;2355.20
55008;DHT22;40902;45.116;21.296;2023-03-21T17:31:53;410.40;2355.20
55008;DHT22;40902;45.116;21.296;2023-03-21T17:34:19;410.40;2355.20
55008;DHT22;40902;45.116;21.296;2023-03-21T17:36:46;410.40;2355.20
55008;DHT22;40902;45.116;21.296;2023-03-21T17:39:20;410.30;2355.20
55008;DHT22;40902;45.116;21.296;2023-03-21T17:41:47;435.20;2355.20
55008;DHT22;40902;45.116;21.296;2023-03-21T17:44:14;410.30;2355.20
55008;DHT22;40902;45.116;21.296;2023-03-21T17:46:40;410.10;2355.20
55008;DHT22;40902;45.116;21.296;2023-03-21T17:49:06;410.10;2355.20
55008;DHT22;40902;45.116;21.296;2023-03-21T17:51:32;410.00;2355.20
55008;DHT22;40902;45.116;21.296;2023-03-21T17:53:58;410.00;2355.20
55008;DHT22;40902;45.116;21.296;2023-03-21T17:56:29;409.80;2355.20
55008;DHT22;40902;45.116;21.296;2023-03-21T17:58:56;409.80;2355.20
55008;DHT22;40902;45.116;21.296;2023-03-21T18:01:22;409.80;2355.20
55008;DHT22;40902;45.116;21.296;2023-03-21T18:03:49;409.80;2355.20
55008;DHT22;40902;45.116;21.296;2023-03-21T18:06:17;409.70;2355.20
55008;DHT22;40902;45.116;21.296;2023-03-21T18:08:44;409.70;2355.20
55008;DHT22;40902;45.116;21.296;2023-03-21T18:11:11;409.70;2355.20
55008;DHT22;40902;45.116;21.296;2023-03-21T18:33:15;409.80;2355.20
55008;DHT22;40902;45.116;21.296;2023-03-21T18:35:41;384.70;2329.60
55008;DHT22;40902;45.116;21.296;2023-03-21T18:38:06;384.50;2329.60
55008;DHT22;40902;45.116;21.296;2023-03-21T18:40:32;384.60;2329.60
55008;DHT22;40902;45.116;21.296;2023-03-21T18:42:58;384.50;2329.60
55008;DHT22;40902;45.116;21.296;2023-03-21T18:45:23;384.50;2329.60
55008;DHT22;40902;45.116;21.296;2023-03-21T18:47:50;384.20;2329.60
55008;DHT22;40902;45.116;21.296;2023-03-21T18:50:17;384.20;2329.60
55008;DHT22;40902;45.116;21.296;2023-03-21T18:52:44;384.10;2329.60
55008;DHT22;40902;45.116;21.296;2023-03-21T18:55:10;384.00;2329.60
55008;DHT22;40902;45.116;21.296;2023-03-21T18:57:39;384.10;2329.60
55008;DHT22;40902;45.116;21.296;2023-03-21T19:00:08;359.30;2329.60
55008;DHT22;40902;45.116;21.296;2023-03-21T19:02:41;359.30;2329.60
55008;DHT22;40902;45.116;21.296;2023-03-21T19:05:07;359.20;2329.60
55008;DHT22;40902;45.116;21.296;2023-03-21T19:07:33;384.00;2329.60
55008;DHT22;40902;45.116;21.296;2023-03-21T19:09:59;359.20;2329.60
55008;DHT22;40902;45.116;21.296;2023-03-21T19:12:26;359.10;2329.60